Time;durP1;ratioP1;P1;durP2;ratioP2;P2;SDS_P1;SDS_P2;PMS_P1;PMS_P2;Temp;Humidity;BMP_temperature;BMP_pressure;BME280_temperature;BME280_humidity;BME280_pressure;Samples;Min_cycle;Max_cycle;Signal;HPM_P1;HPM_P2
2022/11/24 00:00:29;;;;;;;7.70;1.63;;;;;;;6.37;98.99;96550.66;5046367;28;20033;-58
2022/11/24 00:02:55;;;;;;;11.07;1.67;;;;;;;6.44;98.73;96553.19;5035893;28;20516;-58
2022/11/24 00:05:22;;;;;;;7.97;1.40;;;;;;;6.56;98.29;96550.41;5026771;28;20444;-58
2022/11/24 00:07:49;;;;;;;13.77;1.60;;;;;;;6.59;97.58;96549.91;5035770;28;20044;-58
2022/11/24 00:10:15;;;;;;;7.65;1.48;;;;;;;6.66;97.24;96557.03;5062977;28;20123;-57
2022/11/24 00:12:42;;;;;;;9.40;1.63;;;;;;;6.66;97.12;96557.03;5038069;28;20126;-57
2022/11/24 00:15:09;;;;;;;11.18;1.77;;;;;;;6.69;96.81;96553.81;5026922;28;20516;-57
2022/11/24 00:17:35;;;;;;;9.20;1.40;;;;;;;6.70;96.28;96558.13;5044713;28;20470;-58
2022/11/24 00:20:02;;;;;;;9.10;1.75;;;;;;;6.73;96.54;96560.31;5047391;28;20041;-58
2022/11/24 00:22:29;;;;;;;7.03;1.30;;;;;;;6.70;96.32;96564.31;5034514;28;20072;-58
2022/11/24 00:24:56;;;;;;;6.32;1.20;;;;;;;6.73;96.22;96568.41;5035667;28;20045;-57
2022/11/24 00:27:22;;;;;;;7.80;1.35;;;;;;;6.75;96.41;96561.72;5027219;28;20065;-58
2022/11/24 00:29:49;;;;;;;7.10;1.70;;;;;;;6.88;95.37;96568.63;5034883;28;20037;-57
2022/11/24 00:32:15;;;;;;;17.00;1.70;;;;;;;6.98;94.46;96565.25;5040330;28;20394;-56
2022/11/24 00:34:42;;;;;;;4.75;1.00;;;;;;;6.97;94.72;96563.63;5026539;28;20069;-57
2022/11/24 00:37:08;;;;;;;5.40;0.95;;;;;;;6.95;94.25;96578.38;5028621;28;20091;-57
2022/11/24 00:39:35;;;;;;;9.98;1.42;;;;;;;6.91;93.97;96578.06;5046373;28;20080;-58
2022/11/24 00:42:01;;;;;;;8.13;1.70;;;;;;;6.89;94.38;96590.94;5037103;28;20555;-55
2022/11/24 00:44:28;;;;;;;8.90;1.60;;;;;;;6.80;94.73;96585.19;5032431;28;20067;-57
2022/11/24 00:46:54;;;;;;;9.07;1.55;;;;;;;6.67;95.43;96594.41;5046031;28;20515;-57
2022/11/24 00:49:21;;;;;;;5.45;1.50;;;;;;;6.59;95.73;96579.50;5041957;28;20091;-58
2022/11/24 00:51:48;;;;;;;6.93;1.42;;;;;;;6.46;96.64;96585.22;5025843;28;20490;-57
2022/11/24 00:54:14;;;;;;;6.65;1.75;;;;;;;6.40;97.43;96595.06;5025833;28;20041;-56
2022/11/24 00:56:41;;;;;;;10.30;1.92;;;;;;;6.34;98.12;96596.06;5026136;28;20065;-57
2022/11/24 00:59:07;;;;;;;7.63;1.42;;;;;;;6.35;97.72;96593.09;5025591;28;20468;-55
2022/11/24 01:01:34;;;;;;;10.35;1.70;;;;;;;6.26;98.32;96599.94;5024807;28;20033;-55
2022/11/24 01:04:02;;;;;;;10.27;1.63;;;;;;;6.33;97.69;96597.94;5025839;28;20501;-56
2022/11/24 01:06:31;;;;;;;9.88;1.65;;;;;;;6.31;98.19;96602.75;5026130;28;20084;-56
2022/11/24 01:08:58;;;;;;;8.02;2.00;;;;;;;6.23;99.04;96613.91;5035279;28;20050;-57
2022/11/24 01:11:27;;;;;;;5.60;1.58;;;;;;;6.22;99.37;96614.94;5042644;28;20250;-58
2022/11/24 01:13:57;;;;;;;6.40;1.08;;;;;;;6.22;99.33;96623.00;5042395;28;20048;-58
2022/11/24 01:16:26;;;;;;;6.30;1.60;;;;;;;6.19;100.00;96620.81;5044209;28;20091;-58
2022/11/24 01:18:54;;;;;;;10.15;1.83;;;;;;;6.20;99.56;96633.19;5037952;28;20501;-56
2022/11/24 01:21:20;;;;;;;11.35;1.50;;;;;;;6.27;99.16;96639.25;5043774;28;20295;-57
2022/11/24 01:23:47;;;;;;;11.77;1.38;;;;;;;6.28;98.56;96645.41;5044969;28;20033;-57
2022/11/24 01:26:16;;;;;;;10.02;2.00;;;;;;;6.24;99.21;96634.34;5026066;28;20068;-56
2022/11/24 01:28:43;;;;;;;11.48;2.22;;;;;;;6.27;99.17;96646.47;5039295;28;20091;-58
2022/11/24 01:31:14;;;;;;;5.95;1.55;;;;;;;6.24;100.00;96639.72;5045257;28;20094;-57
2022/11/24 01:33:40;;;;;;;5.63;1.30;;;;;;;6.18;100.00;96648.72;5031244;28;20042;-58
2022/11/24 01:36:07;;;;;;;;;;;;;;;6.14;100.00;96650.28;5026012;28;20104;-58
2022/11/24 01:38:33;;;;;;;;;;;;;;;6.02;100.00;96648.44;5039523;28;19921;-59
2022/11/24 01:41:02;;;;;;;;;;;;;;;5.97;100.00;96648.34;5045612;28;19982;-55
2022/11/24 01:43:29;;;;;;;;;;;;;;;5.86;100.00;96640.06;5033422;28;19929;-59
2022/11/24 01:45:56;;;;;;;;;;;;;;;5.81;100.00;96652.59;5028916;28;19974;-58
2022/11/24 01:48:42;;;;;;;;;;;;;;;5.72;100.00;96650.28;5046702;28;19978;-57
2022/11/24 01:51:08;;;;;;;;;;;;;;;5.51;100.00;96653.63;5029839;28;20327;-58
2022/11/24 01:53:35;;;;;;;;;;;;;;;5.33;100.00;96658.91;5044133;28;19967;-56
2022/11/24 01:56:03;;;;;;;;;;;;;;;5.44;100.00;96659.13;5029010;28;19921;-56
2022/11/24 01:58:31;;;;;;;;;;;;;;;5.58;100.00;96657.81;5026045;28;19921;-56
2022/11/24 02:00:58;;;;;;;;;;;;;;;5.41;100.00;96663.09;5041361;28;19978;-58
2022/11/24 02:03:26;;;;;;;;;;;;;;;5.50;100.00;96660.88;5045859;28;19965;-57
2022/11/24 02:05:58;;;;;;;;;;;;;;;5.62;100.00;96660.84;5029715;28;19925;-57
2022/11/24 02:08:36;;;;;;;;;;;;;;;5.71;100.00;96667.47;5029546;28;19921;-57
2022/11/24 02:11:03;;;;;;;;;;;;;;;6.03;100.00;96662.69;5060191;28;19921;-58
2022/11/24 02:13:30;;;;;;;;;;;;;;;6.12;99.47;96669.34;5027633;28;20357;-57
2022/11/24 02:15:57;;;;;;;;;;;;;;;5.82;99.82;96673.84;5045524;28;19974;-58
2022/11/24 02:18:23;;;;;;;;;;;;;;;5.72;100.00;96670.97;5050255;28;20307;-57
2022/11/24 02:20:50;;;;;;;;;;;;;;;5.67;100.00;96670.84;5043169;28;19921;-56
2022/11/24 02:23:23;;;;;;;;;;;;;;;5.80;100.00;96667.91;5042243;28;20407;-58
2022/11/24 02:25:50;;;;;;;;;;;;;;;5.99;100.00;96670.41;5029898;28;19995;-57
2022/11/24 02:28:18;;;;;;;;;;;;;;;6.15;99.93;96670.75;5035050;28;19951;-57
2022/11/24 02:30:45;;;;;;;;;;;;;;;6.13;98.98;96670.16;5048576;28;19975;-57
2022/11/24 02:33:12;;;;;;;;;;;;;;;6.04;98.69;96675.91;5035016;28;19928;-55
2022/11/24 02:35:44;;;;;;;;;;;;;;;5.79;100.00;96681.59;5047424;28;20054;-57
2022/11/24 02:38:14;;;;;;;;;;;;;;;5.58;100.00;96675.78;5027383;28;19952;-58
2022/11/24 02:40:43;;;;;;;;;;;;;;;5.44;100.00;96675.22;5028869;28;19978;-58
2022/11/24 02:43:12;;;;;;;;;;;;;;;5.31;100.00;96665.56;5043863;28;20376;-58
2022/11/24 02:45:38;;;;;;;;;;;;;;;5.23;100.00;96669.41;5042895;28;19925;-58
2022/11/24 02:48:05;;;;;;;;;;;;;;;5.21;100.00;96674.22;5029083;28;19925;-58
2022/11/24 02:50:32;;;;;;;;;;;;;;;5.27;100.00;96672.47;5033052;28;19921;-58
2022/11/24 02:52:58;;;;;;;;;;;;;;;5.11;100.00;96676.66;5028787;28;20407;-57
2022/11/24 02:55:25;;;;;;;;;;;;;;;4.95;100.00;96685.16;5037995;28;20023;-56
2022/11/24 02:57:51;;;;;;;;;;;;;;;4.90;100.00;96681.56;5039791;28;19974;-58
2022/11/24 03:00:18;;;;;;;;;;;;;;;4.45;100.00;96682.91;5045124;28;20379;-57
2022/11/24 03:02:44;;;;;;;;;;;;;;;4.31;100.00;96680.38;5048386;28;19956;-58
2022/11/24 03:05:11;;;;;;;;;;;;;;;4.21;100.00;96682.81;5039997;28;20044;-57
2022/11/24 03:07:38;;;;;;;;;;;;;;;3.92;100.00;96675.38;5028894;28;20015;-57
2022/11/24 03:10:05;;;;;;;;;;;;;;;3.88;100.00;96683.03;5050344;28;19943;-58
2022/11/24 03:12:31;;;;;;;;;;;;;;;3.90;100.00;96682.81;5044798;28;19956;-56
2022/11/24 03:14:58;;;;;;;;;;;;;;;3.65;100.00;96691.78;5041602;28;19974;-56
2022/11/24 03:17:24;;;;;;;;;;;;;;;3.50;100.00;96698.31;5032148;28;20327;-57
2022/11/24 03:19:50;;;;;;;;;;;;;;;3.24;100.00;96694.06;5037016;28;20379;-57
2022/11/24 03:22:17;;;;;;;;;;;;;;;3.19;100.00;96701.94;5027404;28;19925;-57
2022/11/24 03:24:43;;;;;;;;;;;;;;;3.21;100.00;96698.00;5031196;28;19955;-57
2022/11/24 03:27:10;;;;;;;;;;;;;;;3.01;100.00;96694.69;5044057;28;19921;-58
2022/11/24 03:29:36;;;;;;;;;;;;;;;2.95;100.00;96704.44;5045503;28;19929;-57
2022/11/24 03:32:03;;;;;;;;;;;;;;;2.83;100.00;96705.13;5027860;28;20384;-56
2022/11/24 03:34:29;;;;;;;;;;;;;;;2.75;100.00;96709.94;5028039;28;19956;-57
2022/11/24 03:36:55;;;;;;;;;;;;;;;2.78;100.00;96712.16;5047878;28;19974;-55
2022/11/24 03:39:22;;;;;;;;;;;;;;;2.88;100.00;96712.50;5045308;28;19925;-56
2022/11/24 03:41:50;;;;;;;;;;;;;;;2.99;100.00;96714.44;5045217;28;19964;-56
2022/11/24 03:44:16;;;;;;;;;;;;;;;2.95;100.00;96712.47;5030005;28;20396;-56
2022/11/24 03:46:43;;;;;;;;;;;;;;;2.83;100.00;96715.84;5027163;28;19921;-56
2022/11/24 03:49:10;;;;;;;;;;;;;;;2.78;100.00;96713.00;5042130;28;20007;-55
2022/11/24 03:51:36;;;;;;;;;;;;;;;2.79;100.00;96717.31;5047238;28;19974;-57
2022/11/24 03:54:03;;;;;;;;;;;;;;;2.85;100.00;96726.31;5034475;28;19979;-55
2022/11/24 03:56:29;;;;;;;;;;;;;;;3.03;100.00;96722.06;5027876;28;20461;-55
2022/11/24 03:58:55;;;;;;;;;;;;;;;3.10;100.00;96728.16;5027499;28;19921;-58
2022/11/24 04:01:22;;;;;;;;;;;;;;;3.41;100.00;96729.09;5026981;28;19951;-55
2022/11/24 04:03:48;;;;;;;;;;;;;;;3.64;100.00;96724.94;5042202;28;19924;-56
2022/11/24 04:06:15;;;;;;;;;;;;;;;3.71;100.00;96736.41;5046741;28;19925;-58
2022/11/24 04:08:41;;;;;;;;;;;;;;;3.82;100.00;96728.63;5040391;28;19963;-58
2022/11/24 04:12:42;;;;;;;;;;;;;;;3.95;100.00;96727.69;5032620;28;20384;-57
2022/11/24 04:13:54;;;;;;;;;;;;;;;3.98;100.00;96733.38;5026961;28;19940;-58
2022/11/24 04:16:20;;;;;;;;;;;;;;;4.21;100.00;96737.25;5031606;28;19966;-58
2022/11/24 04:18:47;;;;;;;;;;;;;;;4.34;100.00;96738.91;5032460;28;20078;-56
2022/11/24 04:21:13;;;;;;;;;;;;;;;4.75;100.00;96741.03;5029233;28;20353;-58
2022/11/24 04:23:39;;;;;;;;;;;;;;;4.93;100.00;96735.56;5026710;28;19956;-55
2022/11/24 04:26:06;;;;;;;;;;;;;;;4.89;100.00;96736.25;5032402;28;20028;-57
2022/11/24 04:28:33;;;;;;;;;;;;;;;4.90;100.00;96738.72;5026244;28;20015;-58
2022/11/24 04:31:03;;;;;;;;;;;;;;;4.89;100.00;96738.94;5026664;28;19925;-57
2022/11/24 04:33:29;;;;;;;;;;;;;;;4.85;100.00;96752.00;5027233;28;20300;-58
2022/11/24 04:35:56;;;;;;;;;;;;;;;4.84;100.00;96739.63;5039370;28;19986;-56
2022/11/24 04:38:22;;;;;;;;;;;;;;;4.80;100.00;96736.59;5046652;28;20019;-58
2022/11/24 04:41:08;;;;;;;;;;;;;;;4.76;100.00;96737.28;5028701;28;19932;-57
2022/11/24 04:43:35;;;;;;;;;;;;;;;4.75;100.00;96739.16;5027973;28;19953;-58
2022/11/24 04:46:08;;;;;;;;;;;;;;;4.74;100.00;96747.41;5027034;28;20032;-57
2022/11/24 04:48:35;;;;;;;;;;;;;;;4.86;100.00;96744.78;5043153;28;20434;-58
2022/11/24 04:51:05;;;;;;;;;;;;;;;4.91;100.00;96747.59;5045950;28;20007;-58
2022/11/24 04:53:31;;;;;;;;;;;;;;;4.95;100.00;96748.75;5043383;28;19921;-54
2022/11/24 04:55:57;;;;;;;;;;;;;;;4.85;100.00;96745.81;5044236;28;19959;-57
2022/11/24 04:58:24;;;;;;;;;;;;;;;4.85;100.00;96743.13;5042397;28;20113;-57
2022/11/24 05:00:50;;;;;;;;;;;;;;;4.93;100.00;96753.50;5026392;28;19927;-57
2022/11/24 05:03:16;;;;;;;;;;;;;;;5.07;100.00;96756.81;5040987;28;19956;-57
2022/11/24 05:05:43;;;;;;;;;;;;;;;5.01;100.00;96758.56;5033236;28;20011;-57
2022/11/24 05:08:09;;;;;;;;;;;;;;;5.02;100.00;96760.19;5026868;28;20016;-56
2022/11/24 05:10:36;;;;;;;;;;;;;;;5.02;100.00;96756.69;5050899;28;19963;-56
2022/11/24 05:13:04;;;;;;;;;;;;;;;4.99;100.00;96765.19;5044135;28;19927;-56
2022/11/24 05:15:30;;;;;;;;;;;;;;;4.91;100.00;96763.69;5043407;28;19920;-57
2022/11/24 05:17:57;;;;;;;;;;;;;;;4.87;100.00;96765.97;5045738;28;19920;-60
2022/11/24 05:20:24;;;;;;;;;;;;;;;4.94;100.00;96761.34;5046599;28;19947;-58
2022/11/24 05:22:50;;;;;;;7.13;1.50;;;;;;;4.99;100.00;96765.19;5031742;28;19921;-58
2022/11/24 05:25:17;;;;;;;6.70;1.80;;;;;;;4.95;100.00;96771.00;5026152;28;20088;-58
2022/11/24 05:27:43;;;;;;;8.80;1.50;;;;;;;4.98;100.00;96779.66;5037277;28;20073;-57
2022/11/24 05:30:10;;;;;;;6.72;2.03;;;;;;;5.02;100.00;96780.84;5037183;28;20128;-59
2022/11/24 05:32:36;;;;;;;8.23;1.48;;;;;;;5.05;100.00;96769.66;5026154;28;20038;-57
2022/11/24 05:35:04;;;;;;;6.65;1.70;;;;;;;5.13;100.00;96768.50;5025920;28;20121;-58
2022/11/24 05:37:30;;;;;;;9.45;2.03;;;;;;;5.14;100.00;96767.44;5035592;28;20496;-57
2022/11/24 05:39:57;;;;;;;4.32;1.38;;;;;;;5.21;100.00;96766.25;5039115;28;20038;-58
2022/11/24 05:42:41;;;;;;;7.57;1.33;;;;;;;5.19;100.00;96759.50;5025142;28;20273;-58
2022/11/24 05:45:18;;;;;;;7.85;1.50;;;;;;;5.18;100.00;96772.13;5033303;28;20068;-57
2022/11/24 05:47:45;;;;;;;6.18;1.35;;;;;;;5.17;100.00;96770.47;5045721;28;20045;-57
2022/11/24 05:50:15;;;;;;;4.43;1.55;;;;;;;5.24;100.00;96773.06;5042064;28;20072;-58
2022/11/24 05:52:41;;;;;;;9.35;1.45;;;;;;;5.28;100.00;96771.56;5028651;28;20127;-58
2022/11/24 05:55:09;;;;;;;12.70;1.95;;;;;;;5.27;100.00;96774.47;5036351;28;20056;-57
2022/11/24 05:57:36;;;;;;;6.22;1.92;;;;;;;5.27;100.00;96772.56;5049226;28;20041;-57
2022/11/24 06:00:04;;;;;;;7.95;1.70;;;;;;;5.23;100.00;96770.59;5043030;28;20124;-59
2022/11/24 06:02:38;;;;;;;5.85;1.80;;;;;;;5.20;100.00;96767.31;5029493;28;20058;-58
2022/11/24 06:05:05;;;;;;;6.50;2.38;;;;;;;5.23;100.00;96760.66;5028963;28;20083;-58
2022/11/24 06:07:31;;;;;;;7.70;2.38;;;;;;;5.24;100.00;96762.31;5029520;28;20045;-56
2022/11/24 06:09:58;;;;;;;7.88;2.38;;;;;;;5.24;100.00;96767.69;5050773;28;20111;-55
2022/11/24 06:12:24;;;;;;;9.20;2.22;;;;;;;5.35;100.00;96766.06;5048132;28;20705;-58
2022/11/24 06:14:51;;;;;;;8.65;2.15;;;;;;;5.34;100.00;96785.88;5042428;28;20300;-58
2022/11/24 06:17:17;;;;;;;4.68;1.42;;;;;;;5.45;100.00;96779.72;5039735;28;20493;-58
2022/11/24 06:19:46;;;;;;;8.63;1.98;;;;;;;5.54;100.00;96782.88;5046465;28;20519;-58
2022/11/24 06:22:13;;;;;;;4.90;1.42;;;;;;;5.55;100.00;96791.72;5034314;28;20127;-58
2022/11/24 06:24:39;;;;;;;4.95;1.58;;;;;;;5.42;100.00;96792.78;5040041;28;20048;-57
2022/11/24 06:27:06;;;;;;;5.60;1.30;;;;;;;5.55;100.00;96799.78;5046626;28;20094;-55
2022/11/24 06:29:33;;;;;;;8.50;1.73;;;;;;;5.53;100.00;96801.91;5046060;28;20122;-58
2022/11/24 06:31:59;;;;;;;7.47;1.33;;;;;;;5.44;100.00;96804.94;5040124;28;20079;-57
2022/11/24 06:34:26;;;;;;;6.20;1.67;;;;;;;5.60;100.00;96802.59;5039476;28;20538;-56
2022/11/24 06:36:52;;;;;;;5.78;1.77;;;;;;;5.63;100.00;96804.81;5043886;28;20465;-58
2022/11/24 06:39:18;;;;;;;8.82;1.30;;;;;;;5.67;100.00;96819.41;5046590;28;20049;-57
2022/11/24 06:41:45;;;;;;;4.13;1.25;;;;;;;5.75;100.00;96828.97;5039088;28;20400;-58
2022/11/24 06:44:11;;;;;;;11.32;2.20;;;;;;;5.62;100.00;96823.84;5045737;28;20483;-58
2022/11/24 06:46:38;;;;;;;7.90;2.08;;;;;;;5.64;100.00;96829.81;5043372;28;20048;-58
2022/11/24 06:49:04;;;;;;;6.82;1.83;;;;;;;5.73;100.00;96836.47;5038209;28;20129;-59
2022/11/24 06:51:31;;;;;;;5.10;1.48;;;;;;;5.81;100.00;96841.47;5035626;28;20059;-59
2022/11/24 06:53:57;;;;;;;6.78;1.42;;;;;;;5.70;100.00;96839.59;5045963;28;20068;-58
2022/11/24 06:56:24;;;;;;;13.27;2.22;;;;;;;5.86;100.00;96849.66;5041936;28;20045;-58
2022/11/24 06:58:52;;;;;;;7.65;1.58;;;;;;;5.94;100.00;96848.47;5038516;28;20045;-57
2022/11/24 07:01:24;;;;;;;7.85;2.03;;;;;;;5.92;100.00;96845.22;5043555;28;20071;-59
2022/11/24 07:03:52;;;;;;;8.68;1.45;;;;;;;5.84;100.00;96854.47;5057577;28;20314;-58
2022/11/24 07:06:20;;;;;;;11.27;1.58;;;;;;;5.90;100.00;96865.31;5046154;28;20037;-58
2022/11/24 07:08:48;;;;;;;7.35;1.65;;;;;;;5.79;100.00;96869.63;5047844;28;20079;-59
2022/11/24 07:11:17;;;;;;;7.35;1.33;;;;;;;5.69;100.00;96875.59;5035427;28;20045;-58
2022/11/24 07:13:45;;;;;;;8.93;1.70;;;;;;;5.68;100.00;96880.13;5045850;28;20049;-59
2022/11/24 07:16:20;;;;;;;8.20;1.33;;;;;;;5.66;100.00;96894.84;5045194;28;20352;-58
2022/11/24 07:18:48;;;;;;;10.88;1.83;;;;;;;5.75;100.00;96898.03;5043684;28;20072;-59
2022/11/24 07:21:15;;;;;;;4.93;0.73;;;;;;;5.81;100.00;96900.59;5039397;28;20076;-58
2022/11/24 07:23:41;;;;;;;5.43;1.25;;;;;;;5.79;100.00;96909.94;5042299;28;20223;-57
2022/11/24 07:26:09;;;;;;;8.52;1.23;;;;;;;5.75;100.00;96917.63;5044049;28;20048;-58
2022/11/24 07:28:36;;;;;;;4.70;1.15;;;;;;;5.72;100.00;96915.44;5038648;28;20159;-55
2022/11/24 07:31:17;;;;;;;5.57;0.80;;;;;;;5.78;100.00;96924.44;5041688;28;20047;-55
2022/11/24 07:33:48;;;;;;;3.85;0.80;;;;;;;5.79;100.00;96928.75;5042291;28;20437;-57
2022/11/24 07:36:15;;;;;;;3.22;0.85;;;;;;;5.77;100.00;96941.56;5042634;28;20404;-57
2022/11/24 07:38:41;;;;;;;3.90;0.70;;;;;;;5.66;100.00;96948.56;5043388;28;20516;-55
2022/11/24 07:41:10;;;;;;;2.93;1.13;;;;;;;5.75;100.00;96957.91;5039475;28;20519;-56
2022/11/24 07:43:38;;;;;;;6.05;1.15;;;;;;;5.75;100.00;96959.81;5044145;28;20765;-58
2022/11/24 07:46:05;;;;;;;;;;;;;;;5.66;100.00;96948.56;5044458;28;20150;-58
2022/11/24 07:48:32;;;;;;;;;;;;;;;5.60;100.00;96937.69;5045265;28;20300;-58
2022/11/24 07:50:59;;;;;;;;;;;;;;;5.46;100.00;96930.91;5040460;28;19925;-58
2022/11/24 07:53:26;;;;;;;;;;;;;;;5.34;100.00;96923.63;5035925;28;19925;-57
2022/11/24 07:55:54;;;;;;;;;;;;;;;5.25;100.00;96925.00;5045170;28;19947;-58
2022/11/24 07:58:21;;;;;;;;;;;;;;;5.24;100.00;96923.38;5044504;28;20022;-58
2022/11/24 08:00:47;;;;;;;;;;;;;;;5.24;100.00;96927.91;5046551;28;20011;-58
2022/11/24 08:03:14;;;;;;;;;;;;;;;5.31;100.00;96934.81;5054638;28;19928;-59
2022/11/24 08:05:40;;;;;;;;;;;;;;;5.28;100.00;96935.31;5042747;28;19932;-58
2022/11/24 08:08:27;;;;;;;;;;;;;;;5.28;100.00;96948.72;5047188;28;20361;-56
2022/11/24 08:10:53;;;;;;;;;;;;;;;5.31;100.00;96944.75;5053728;28;20451;-58
2022/11/24 08:13:19;;;;;;;;;;;;;;;5.41;100.00;96947.69;5046603;28;19925;-58
2022/11/24 08:15:46;;;;;;;;;;;;;;;5.42;100.00;96943.16;5037729;28;19928;-58
2022/11/24 08:18:12;;;;;;;;;;;;;;;5.30;100.00;96943.09;5044254;28;19928;-57
2022/11/24 08:20:39;;;;;;;;;;;;;;;5.34;100.00;96942.44;5044158;28;20314;-58
2022/11/24 08:23:05;;;;;;;;;;;;;;;5.41;100.00;96946.88;5039671;28;19963;-56
2022/11/24 08:25:32;;;;;;;;;;;;;;;5.36;100.00;96957.47;5037531;28;20073;-57
2022/11/24 08:27:59;;;;;;;;;;;;;;;5.39;100.00;96955.19;5042259;28;19925;-61
2022/11/24 08:30:25;;;;;;;;;;;;;;;5.39;100.00;96959.72;5038879;28;19924;-59
2022/11/24 08:32:52;;;;;;;;;;;;;;;5.33;100.00;96959.59;5036197;28;20363;-57
2022/11/24 08:35:19;;;;;;;;;;;;;;;5.33;100.00;96958.75;5032280;28;19924;-60
2022/11/24 08:37:45;;;;;;;;;;;;;;;5.38;100.00;96958.88;5034758;28;19932;-59
2022/11/24 08:40:12;;;;;;;;;;;;;;;5.40;100.00;96962.19;5028625;28;19925;-57
2022/11/24 08:42:38;;;;;;;;;;;;;;;5.44;100.00;96970.59;5052268;28;20209;-56
2022/11/24 08:45:05;;;;;;;;;;;;;;;5.45;100.00;96959.63;5054871;28;20145;-58
2022/11/24 08:47:49;;;;;;;;;;;;;;;5.40;100.00;96964.03;5038426;28;19921;-58
2022/11/24 08:50:16;;;;;;;;;;;;;;;5.40;100.00;96964.84;5033772;28;19927;-59
2022/11/24 08:52:42;;;;;;;;;;;;;;;5.47;100.00;96973.66;5039940;28;19933;-59
2022/11/24 08:55:09;;;;;;;;;;;;;;;5.47;100.00;96972.81;5044520;28;20002;-59
2022/11/24 08:57:36;;;;;;;;;;;;;;;5.62;100.00;96979.63;5048107;28;20012;-59
2022/11/24 09:00:03;;;;;;;;;;;;;;;5.70;100.00;96977.44;5038025;28;19960;-59
2022/11/24 09:02:30;;;;;;;;;;;;;;;5.82;100.00;96977.44;5032998;28;19971;-59
2022/11/24 09:04:56;;;;;;;;;;;;;;;5.95;100.00;96987.19;5037669;28;20018;-58
2022/11/24 09:07:22;;;;;;;;;;;;;;;5.89;100.00;96988.09;5044111;28;19920;-58
2022/11/24 09:09:49;;;;;;;;;;;;;;;5.95;100.00;96984.50;5036058;28;20443;-57
2022/11/24 09:12:15;;;;;;;;;;;;;;;5.85;100.00;96992.28;5033744;28;19921;-57
2022/11/24 09:14:42;;;;;;;;;;;;;;;5.83;100.00;96992.50;5036882;28;19974;-58
2022/11/24 09:17:08;;;;;;;;;;;;;;;5.81;100.00;96991.94;5034418;28;19975;-56
2022/11/24 09:19:34;;;;;;;;;;;;;;;5.76;100.00;96999.88;5036654;28;19924;-58
2022/11/24 09:22:01;;;;;;;;;;;;;;;5.98;100.00;97004.72;5032344;28;19920;-58
2022/11/24 09:24:28;;;;;;;;;;;;;;;5.92;100.00;97011.00;5049505;28;20361;-56
2022/11/24 09:26:55;;;;;;;;;;;;;;;5.89;100.00;97017.66;5039370;28;20000;-58
2022/11/24 09:29:21;;;;;;;;;;;;;;;5.94;100.00;97027.72;5048937;28;20277;-58
2022/11/24 09:31:48;;;;;;;;;;;;;;;5.88;100.00;97025.94;5036419;28;20020;-57
2022/11/24 09:34:15;;;;;;;;;;;;;;;5.94;100.00;97027.72;5030027;28;20304;-58
2022/11/24 09:36:41;;;;;;;;;;;;;;;6.02;100.00;97034.63;5041605;28;20012;-59
2022/11/24 09:39:09;;;;;;;;;;;;;;;6.08;100.00;97034.53;5040271;28;20436;-58
2022/11/24 09:41:38;;;;;;;;;;;;;;;6.22;100.00;97034.31;5036281;28;19921;-57
2022/11/24 09:44:07;;;;;;;;;;;;;;;6.23;100.00;97036.78;5050581;28;20435;-58
2022/11/24 09:46:46;;;;;;;;;;;;;;;6.26;100.00;97056.22;5039984;28;19986;-58
2022/11/24 09:49:41;;;;;;;;;;;;;;;6.32;100.00;97048.03;5048266;28;19957;-58
2022/11/24 09:52:16;;;;;;;;;;;;;;;6.29;100.00;97056.56;5027370;28;19924;-59
2022/11/24 09:54:57;;;;;;;;;;;;;;;6.37;100.00;97056.22;5033072;28;19944;-58
2022/11/24 09:57:25;;;;;;;;;;;;;;;6.40;100.00;97063.00;5040157;28;19924;-57
2022/11/24 09:59:53;;;;;;;;;;;;;;;6.45;100.00;97059.63;5046503;28;20051;-58
2022/11/24 10:02:19;;;;;;;;;;;;;;;6.45;100.00;97056.94;5046540;28;20019;-58
2022/11/24 10:04:46;;;;;;;;;;;;;;;6.54;100.00;97065.44;5030639;28;19921;-55
2022/11/24 10:07:12;;;;;;;;;;;;;;;6.73;100.00;97068.84;5043769;28;20315;-58
2022/11/24 10:09:39;;;;;;;;;;;;;;;6.56;100.00;97063.38;5039236;28;19974;-58
2022/11/24 10:12:05;;;;;;;;;;;;;;;6.55;100.00;97062.53;5032168;28;19925;-57
2022/11/24 10:14:50;;;;;;;;;;;;;;;6.52;100.00;97059.50;5041277;28;20021;-59
2022/11/24 10:17:25;;;;;;;;;;;;;;;6.43;100.00;97065.22;5038736;28;19921;-57
2022/11/24 10:19:57;;;;;;;;;;;;;;;6.42;100.00;97060.06;5040824;28;19929;-56
2022/11/24 10:22:26;;;;;;;;;;;;;;;6.40;100.00;97065.69;5031425;28;20046;-58
2022/11/24 10:25:00;;;;;;;;;;;;;;;6.31;100.00;97067.91;5036221;28;20088;-58
2022/11/24 10:27:34;;;;;;;;;;;;;;;6.44;100.00;97071.41;5043578;28;19968;-59
2022/11/24 10:30:01;;;;;;;;;;;;;;;6.40;100.00;97073.75;5042715;28;19921;-56
2022/11/24 10:32:34;;;;;;;;;;;;;;;6.44;100.00;97068.72;5039080;28;19964;-59
2022/11/24 10:35:13;;;;;;;;;;;;;;;6.60;100.00;97073.41;5041796;28;19928;-58
2022/11/24 10:37:43;;;;;;;;;;;;;;;6.69;100.00;97073.06;5040365;28;19920;-59
2022/11/24 10:40:21;;;;;;;;;;;;;;;6.74;100.00;97076.69;5039152;28;20257;-60
2022/11/24 10:43:09;;;;;;;;;;;;;;;6.82;100.00;97070.13;5038583;28;19928;-60
2022/11/24 10:45:38;;;;;;;;;;;;;;;6.73;100.00;97067.00;5030038;28;19979;-60
2022/11/24 10:48:15;;;;;;;;;;;;;;;6.81;100.00;97070.38;5038730;28;19925;-59
2022/11/24 10:50:42;;;;;;;;;;;;;;;6.89;100.00;97076.22;5030065;28;19979;-59
2022/11/24 10:53:11;;;;;;;;;;;;;;;6.94;100.00;97078.22;5046063;28;19921;-59
2022/11/24 10:55:53;;;;;;;;;;;;;;;7.07;100.00;97076.31;5043643;28;19925;-58
2022/11/24 10:58:32;;;;;;;;;;;;;;;7.16;100.00;97074.91;5035438;28;19979;-59
2022/11/24 11:01:12;;;;;;;;;;;;;;;7.31;100.00;97073.56;5037351;28;19925;-58
2022/11/24 11:03:46;;;;;;;;;;;;;;;7.48;98.91;97065.56;5037291;28;19967;-59
2022/11/24 11:06:35;;;;;;;;;;;;;;;7.36;98.35;97071.81;5042440;28;19920;-59
2022/11/24 11:09:07;;;;;;;;;;;;;;;7.47;96.09;97074.69;5034429;28;19931;-60
2022/11/24 11:11:34;;;;;;;;;;;;;;;7.41;95.50;97085.38;5036792;28;19955;-59
2022/11/24 11:14:02;;;;;;;;;;;;;;;7.41;95.96;97085.38;5034656;28;20019;-59
2022/11/24 11:16:30;;;;;;;;;;;;;;;7.49;98.18;97068.00;5037080;28;20375;-59
2022/11/24 11:18:56;;;;;;;;;;;;;;;7.57;96.71;97074.91;5033271;28;19932;-60
2022/11/24 11:21:27;;;;;;;;;;;;;;;7.65;94.33;97081.78;5044545;28;19924;-56
2022/11/24 11:23:53;;;;;;;;;;;;;;;7.67;94.48;97075.09;5044661;28;19964;-58
2022/11/24 11:26:22;;;;;;;;;;;;;;;7.63;94.36;97076.63;5040629;28;19921;-59
2022/11/24 11:29:15;;;;;;;;;;;;;;;7.63;95.31;97086.59;5037598;28;19924;-57
2022/11/24 11:32:15;;;;;;;;;;;;;;;7.49;93.37;97067.19;5026775;28;20399;-55
2022/11/24 11:35:01;;;;;;;;;;;;;;;7.34;94.21;97073.91;5043902;28;20084;-55
2022/11/24 11:37:29;;;;;;;;;;;;;;;7.38;94.15;97085.84;5045937;28;20019;-57
2022/11/24 11:39:57;;;;;;;;;;;;;;;7.57;91.28;97069.53;5046801;28;20017;-58
2022/11/24 11:42:38;;;;;;;;;;;;;;;7.79;90.35;97066.97;5037165;28;19921;-58
2022/11/24 11:45:32;;;;;;;;;;;;;;;8.05;90.98;97075.53;5046125;28;19934;-58
2022/11/24 11:48:02;;;;;;;;;;;;;;;7.96;90.36;97087.72;5043298;28;19924;-59
2022/11/24 11:50:38;;;;;;;;;;;;;;;7.85;88.87;97085.94;5036601;28;20019;-55
2022/11/24 11:53:40;;;;;;;;;;;;;;;7.87;88.38;97089.19;5037506;28;20024;-59
2022/11/24 11:56:23;;;;;;;;;;;;;;;7.76;88.84;97085.50;5045452;28;20343;-57
2022/11/24 11:58:49;;;;;;;;;;;;;;;7.78;88.53;97083.38;5031680;28;19956;-55
2022/11/24 12:01:41;;;;;;;;;;;;;;;7.72;89.14;97082.47;5050947;28;20407;-58
2022/11/24 12:04:14;;;;;;;;;;;;;;;7.62;87.91;97093.84;5030794;28;20414;-56
2022/11/24 12:06:59;;;;;;;;;;;;;;;7.59;88.20;97088.13;5033210;28;20019;-57
2022/11/24 12:09:28;;;;;;;8.90;1.67;;;;;;;7.58;88.60;97086.47;5040385;28;19924;-58
2022/11/24 12:12:13;;;;;;;4.80;1.35;;;;;;;7.60;90.13;97089.78;5040137;28;20120;-57
2022/11/24 12:14:42;;;;;;;9.27;1.35;;;;;;;7.64;88.49;97097.16;5030567;28;20103;-58
2022/11/24 12:17:18;;;;;;;3.10;1.05;;;;;;;7.70;87.24;97094.53;5029715;28;20112;-56
2022/11/24 12:19:56;;;;;;;6.03;1.15;;;;;;;7.78;86.81;97099.56;5037439;28;20514;-56
2022/11/24 12:22:37;;;;;;;6.78;1.27;;;;;;;7.87;87.38;97108.06;5051251;28;20504;-57
2022/11/24 12:25:21;;;;;;;9.40;1.53;;;;;;;7.91;86.05;97106.50;5040798;28;20681;-58
2022/11/24 12:27:52;;;;;;;5.43;1.10;;;;;;;7.93;82.91;97109.81;5038709;28;20037;-58
2022/11/24 12:30:21;;;;;;;4.80;0.98;;;;;;;8.03;82.87;97101.06;5025606;28;20080;-56